Latest Weather Observations for Bradshaw-Koolendong Valley

IDD60801

Issued at 8:01 pm CST Thursday 13 June 2024 (issued every 10 minutes, with the page automatically refreshed every 10 minutes)

About weather observations | Map of weather stations | Latest weather observations for NT | Other Formats
Station Details ID: 014981 Name: BRADSHAW - KOOLENDONG VALLEY (DEFENCE) Lat: -15.19 Lon: 130.12 Height: 42.0 m
Data from the previous 72 hours. | See also: Recent months at Bradshaw-Koolendong Valley
Date/Time
CST
Temp
°C
App
Temp
°C
Dew
Point
°C
Rel
Hum
%
Delta-T
°C
Wind Press
QNH
hPa
Press
MSL
hPa
Rain since
9am
mm
Dir  Spd
km/h
Gust
km/h
Spd
kts
Gust
kts
13/07:30pm 20.3 19.9 11.0 55 5.1 SE 4 6 2 3 1014.8 1014.5 0.0
13/07:00pm 22.3 22.6 10.8 48 6.4 CALM 0 0 0 0 1014.5 1014.2 0.0
13/06:30pm 25.5 25.5 9.7 37 8.7 CALM 0 4 0 2 1014.2 1013.9 0.0
13/06:29pm 25.6 25.5 9.4 36 8.9 CALM 0 4 0 2 1014.1 1013.8 0.0
13/06:00pm 30.6 29.2 7.1 23 12.7 ESE 4 7 2 4 1013.9 1013.6 0.0
13/05:30pm 32.6 30.8 5.2 18 14.5 ESE 4 11 2 6 1013.6 1013.3 0.0
13/05:00pm 33.5 31.4 5.9 18 14.9 ESE 6 11 3 6 1013.4 1013.1 0.0
13/04:30pm 33.6 31.2 5.2 17 15.2 E 7 15 4 8 1013.5 1013.2 0.0
13/04:00pm 33.7 30.8 4.4 16 15.4 ESE 9 19 5 10 1013.5 1013.2 0.0
13/03:30pm 33.8 31.3 4.5 16 15.5 E 7 17 4 9 1013.6 1013.3 0.0
13/03:00pm 33.6 30.6 4.3 16 15.4 E 9 19 5 10 1014.0 1013.7 0.0
13/02:30pm 33.5 30.1 4.2 16 15.4 ESE 11 19 6 10 1014.5 1014.2 0.0
13/02:00pm 33.1 30.2 4.8 17 15.0 SE 9 15 5 8 1014.9 1014.6 0.0
13/01:30pm 32.8 29.3 3.7 16 15.1 ESE 11 19 6 10 1015.6 1015.3 0.0
13/01:00pm 32.0 28.6 3.9 17 14.6 E 11 20 6 11 1016.2 1015.9 0.0
13/12:30pm 31.7 28.6 3.7 17 14.4 E 9 20 5 11 1016.8 1016.5 0.0
13/12:00pm 31.3 28.3 4.2 18 14.0 ENE 9 19 5 10 1017.4 1017.1 0.0
13/11:30am 30.4 26.4 2.6 17 13.9 ESE 13 22 7 12 1017.7 1017.4 0.0
13/11:00am 29.6 26.2 2.0 17 13.6 ESE 9 17 5 9 1017.9 1017.6 0.0
13/10:30am 29.2 25.9 2.5 18 13.2 ESE 9 17 5 9 1018.2 1018.0 0.0
13/10:00am 26.6 24.9 7.6 30 10.2 SSE 6 7 3 4 1018.5 1018.3 0.0
13/09:30am 24.0 23.4 8.8 38 8.2 S 2 6 1 3 1018.7 1018.5 0.0
13/09:00am 21.6 22.0 11.3 52 5.7 CALM 0 0 0 0 1018.6 1018.4 0.0
13/08:50am 20.5 21.1 12.0 58 4.8 CALM 0 0 0 0 1018.6 1018.4 0.0
13/08:30am 15.5 16.6 13.5 88 1.1 CALM 0 2 0 1 1018.4 1018.2 0.0
13/08:00am 10.7 10.7 9.8 94 0.5 CALM 0 0 0 0 1017.9 1017.6 0.0
13/07:30am 9.3 8.9 8.2 93 0.5 CALM 0 0 0 0 1017.5 1017.2 0.0
13/07:00am 9.3 8.9 8.1 92 0.6 CALM 0 0 0 0 1017.4 1017.1 0.0
13/06:30am 9.5 9.1 8.3 92 0.6 CALM 0 0 0 0 1017.3 1017.0 0.0
13/06:00am 9.6 8.9 8.5 93 0.5 SE 2 6 1 3 1016.9 1016.6 0.0
13/05:30am 9.7 9.4 8.5 92 0.6 CALM 0 0 0 0 1016.7 1016.4 0.0
13/05:00am 10.0 9.7 8.8 92 0.6 CALM 0 0 0 0 1016.6 1016.3 0.0
13/04:30am 10.3 10.0 8.7 90 0.8 CALM 0 0 0 0 1016.5 1016.2 0.0
13/04:00am 10.8 10.6 9.1 89 0.8 CALM 0 0 0 0 1016.6 1016.3 0.0
13/03:30am 11.0 10.9 9.3 89 0.9 CALM 0 0 0 0 1016.9 1016.6 0.0
13/03:00am 11.3 11.2 9.4 88 1.0 CALM 0 0 0 0 1017.2 1016.9 0.0
13/02:30am 11.3 11.2 9.4 88 1.0 CALM 0 0 0 0 1017.4 1017.1 0.0
13/02:00am 11.4 11.3 9.5 88 1.0 CALM 0 0 0 0 1017.6 1017.3 0.0
13/01:30am 11.7 11.7 9.8 88 1.0 CALM 0 0 0 0 1017.8 1017.5 0.0
13/01:00am 12.0 12.0 9.7 86 1.2 CALM 0 0 0 0 1018.2 1018.0 0.0
13/12:30am 12.4 12.4 9.8 84 1.3 CALM 0 0 0 0 1018.1 1017.9 0.0
13/12:00am 12.7 12.7 9.7 82 1.5 CALM 0 0 0 0 1018.5 1018.3 0.0
 
Date/Time
CST
Temp
°C
App
Temp
°C
Dew
Point
°C
Rel
Hum
%
Delta-T
°C
Wind Press
QNH
hPa
Press
MSL
hPa
Rain since
9am
mm
Dir  Spd
km/h
Gust
km/h
Spd
kts
Gust
kts
12/11:30pm 13.2 13.3 10.0 81 1.6 CALM 0 0 0 0 1018.6 1018.4 0.0
12/11:00pm 13.6 13.7 10.0 79 1.9 CALM 0 0 0 0 1018.7 1018.5 0.0
12/10:30pm 14.2 14.3 10.0 76 2.2 CALM 0 0 0 0 1018.8 1018.6 0.0
12/10:00pm 14.7 14.7 9.9 73 2.5 CALM 0 0 0 0 1018.6 1018.4 0.0
12/09:30pm 15.7 15.8 10.0 69 3.0 CALM 0 0 0 0 1018.3 1018.1 0.0
12/09:00pm 16.3 16.3 9.9 66 3.4 CALM 0 0 0 0 1018.1 1017.9 0.0
12/08:30pm 17.2 17.3 10.1 63 3.8 CALM 0 0 0 0 1017.8 1017.5 0.0
12/08:00pm 18.7 18.8 10.0 57 4.6 CALM 0 0 0 0 1017.3 1017.0 0.0
12/07:30pm 20.6 20.7 10.1 51 5.7 CALM 0 0 0 0 1017.1 1016.8 0.0
12/07:00pm 23.6 23.2 8.1 37 8.2 CALM 0 2 0 1 1016.8 1016.5 0.0
12/06:30pm 26.9 25.5 7.4 29 10.4 SE 4 7 2 4 1016.5 1016.2 0.0
12/06:00pm 29.4 27.9 6.7 24 12.1 SE 4 9 2 5 1016.2 1015.9 0.0
12/05:30pm 30.9 28.7 6.0 21 13.3 SSE 7 19 4 10 1016.0 1015.7 0.0
12/05:00pm 31.6 29.5 6.6 21 13.5 SSE 7 17 4 9 1015.9 1015.6 0.0
12/04:30pm 31.9 29.3 6.2 20 13.8 SSE 9 17 5 9 1015.7 1015.4 0.0
12/04:00pm 32.4 29.7 5.8 19 14.2 SSE 9 19 5 10 1015.7 1015.4 0.0
12/03:30pm 32.5 29.9 5.9 19 14.3 ESE 9 17 5 9 1015.8 1015.5 0.0
12/03:00pm 32.1 29.5 6.3 20 13.9 E 9 19 5 10 1016.2 1015.9 0.0
12/02:30pm 32.1 29.3 7.0 21 13.7 SE 11 20 6 11 1016.4 1016.1 0.0
12/02:00pm 31.4 28.5 6.5 21 13.4 SE 11 22 6 12 1016.9 1016.6 0.0
12/01:30pm 31.8 29.0 5.3 19 14.0 SE 9 19 5 10 1017.3 1017.0 0.0
12/01:00pm 32.0 29.0 6.2 20 13.9 ESE 11 22 6 12 1018.0 1017.7 0.0
12/12:30pm 31.5 28.6 6.5 21 13.5 SE 11 20 6 11 1018.5 1018.3 0.0
12/12:00pm 30.9 29.2 7.4 23 12.8 SSE 6 13 3 7 1019.0 1018.8 0.0
12/11:30am 29.2 28.3 9.3 29 11.1 E 4 11 2 6 1019.5 1019.3 0.0
12/11:00am 27.9 27.1 9.7 32 10.2 W 4 9 2 5 1019.8 1019.6 0.0
12/10:30am 26.3 25.5 9.6 35 9.2 SSW 4 7 2 4 1020.1 1019.9 0.0
12/10:00am 25.3 24.5 9.6 37 8.6 ESE 4 7 2 4 1020.2 1020.0 0.0
12/09:30am 23.7 23.9 10.7 44 7.2 CALM 0 0 0 0 1020.4 1020.2 0.0
12/09:00am 20.5 20.9 11.2 55 5.1 CALM 0 0 0 0 1020.3 1020.1 0.0
12/08:56am 20.3 20.9 12.0 59 4.6 CALM 0 0 0 0 1020.2 1020.0 0.0
12/08:30am 15.3 16.3 13.2 87 1.2 CALM 0 0 0 0 1019.9 1019.7 0.0
12/08:00am 10.3 10.2 9.5 95 0.4 CALM 0 0 0 0 1019.5 1019.3 0.0
12/07:30am 8.8 8.3 7.9 94 0.4 CALM 0 0 0 0 1019.3 1019.1 0.0
12/07:00am 8.8 8.3 7.7 93 0.5 CALM 0 0 0 0 1019.0 1018.8 0.0
12/06:30am 9.0 8.5 7.8 92 0.6 CALM 0 0 0 0 1018.7 1018.5 0.0
12/06:00am 9.3 8.9 8.2 93 0.5 CALM 0 0 0 0 1018.4 1018.2 0.0
12/05:30am 9.3 8.9 8.2 93 0.5 CALM 0 4 0 2 1018.2 1018.0 0.0
12/05:00am 9.6 9.2 8.4 92 0.6 CALM 0 0 0 0 1018.2 1018.0 0.0
12/04:30am 9.8 9.5 8.6 92 0.6 CALM 0 4 0 2 1018.2 1018.0 0.0
12/04:00am 9.9 9.6 8.5 91 0.7 CALM 0 0 0 0 1018.0 1017.7 0.0
12/03:30am 10.2 9.9 8.8 91 0.7 CALM 0 0 0 0 1018.1 1017.9 0.0
12/03:00am 10.3 10.0 8.7 90 0.8 CALM 0 0 0 0 1018.3 1018.1 0.0
12/02:30am 10.7 10.5 9.1 90 0.8 CALM 0 0 0 0 1018.5 1018.3 0.0
12/02:00am 11.1 10.9 9.2 88 1.0 CALM 0 0 0 0 1018.6 1018.4 0.0
12/01:30am 11.4 11.3 9.3 87 1.1 CALM 0 0 0 0 1018.7 1018.5 0.0
12/01:00am 11.9 11.7 9.1 83 1.4 CALM 0 0 0 0 1018.8 1018.6 0.0
12/12:30am 12.4 12.3 9.6 83 1.4 CALM 0 0 0 0 1018.8 1018.6 0.0
12/12:00am 12.8 12.8 9.8 82 1.5 CALM 0 0 0 0 1018.9 1018.7 0.0
 
Date/Time
CST
Temp
°C
App
Temp
°C
Dew
Point
°C
Rel
Hum
%
Delta-T
°C
Wind Press
QNH
hPa
Press
MSL
hPa
Rain since
9am
mm
Dir  Spd
km/h
Gust
km/h
Spd
kts
Gust
kts
11/11:30pm 13.4 13.5 10.2 81 1.7 CALM 0 0 0 0 1019.0 1018.8 0.0
11/11:00pm 14.1 14.2 10.3 78 2.0 CALM 0 0 0 0 1019.1 1018.9 0.0
11/10:30pm 14.1 14.1 9.7 75 2.3 CALM 0 0 0 0 1019.1 1018.9 0.0
11/10:00pm 14.7 14.8 10.3 75 2.3 CALM 0 0 0 0 1018.9 1018.7 0.0
11/09:30pm 15.5 15.7 10.5 72 2.6 CALM 0 0 0 0 1018.5 1018.3 0.0
11/09:00pm 16.2 16.4 10.5 69 3.0 CALM 0 0 0 0 1018.3 1018.1 0.0
11/08:30pm 17.3 17.6 10.9 66 3.4 CALM 0 0 0 0 1017.9 1017.6 0.0
11/08:00pm 18.3 18.5 10.7 61 4.1 CALM 0 0 0 0 1017.6 1017.3 0.0
11/07:30pm 20.2 20.3 10.0 52 5.5 CALM 0 2 0 1 1017.2 1016.9 0.0
11/07:00pm 22.6 21.9 10.1 45 6.8 SE 4 6 2 3 1016.9 1016.6 0.0
11/06:30pm 25.7 24.9 9.5 36 8.9 SSE 4 6 2 3 1016.6 1016.3 0.0
11/06:00pm 29.1 28.1 8.7 28 11.2 SSE 4 9 2 5 1016.4 1016.1 0.0
11/05:30pm 30.5 28.6 7.7 24 12.5 SSE 7 13 4 7 1016.1 1015.8 0.0
11/05:00pm 31.6 29.6 7.3 22 13.3 SE 7 13 4 7 1016.1 1015.8 0.0
11/04:30pm 31.6 29.3 7.3 22 13.3 SSE 9 17 5 9 1015.9 1015.6 0.0
11/04:00pm 32.2 30.9 7.8 22 13.5 ESE 4 9 2 5 1016.0 1015.7 0.0
11/03:30pm 32.2 30.2 6.4 20 13.9 ESE 6 11 3 6 1016.3 1016.0 0.0
11/03:00pm 31.5 29.6 9.1 25 12.6 S 9 15 5 8 1016.5 1016.2 0.0
11/02:30pm 31.4 29.7 8.4 24 12.8 SE 7 13 4 7 1016.9 1016.6 0.0
11/02:00pm 30.9 29.1 8.0 24 12.6 SE 7 13 4 7 1017.5 1017.2 0.0
11/01:30pm 31.1 29.1 8.8 25 12.4 ENE 9 19 5 10 1018.1 1017.9 0.0
11/01:00pm 30.5 28.0 8.3 25 12.3 ESE 11 22 6 12 1018.5 1018.3 0.0
11/12:30pm 30.0 27.2 8.4 26 11.9 E 13 24 7 13 1019.2 1019.0 0.0
11/12:00pm 30.0 29.2 9.5 28 11.5 NNE 4 9 2 5 1019.8 1019.6 0.0
11/11:30am 29.0 27.3 9.7 30 10.8 ENE 9 15 5 8 1020.3 1020.1 0.0
11/11:00am 28.1 26.9 9.4 31 10.4 E 6 15 3 8 1020.7 1020.5 0.0
11/10:30am 26.4 25.6 9.7 35 9.2 ENE 4 11 2 6 1020.8 1020.6 0.0
11/10:00am 24.6 24.3 10.1 40 8.0 E 2 6 1 3 1021.0 1020.8 0.0
11/09:30am 22.4 22.3 10.9 48 6.4 SSW 2 4 1 2 1021.0 1020.8 0.0
11/09:00am 19.6 20.4 12.4 63 4.0 CALM 0 0 0 0 1020.7 1020.5 0.0
11/08:30am 15.2 16.7 14.6 96 0.3 CALM 0 0 0 0 1020.4 1020.2 0.0
11/08:00am 10.5 10.5 9.9 96 0.3 CALM 0 0 0 0 1020.0 1019.8 0.0
11/07:30am 9.0 8.6 8.2 95 0.4 CALM 0 0 0 0 1019.5 1019.3 0.0
11/07:00am 8.9 8.4 8.0 94 0.4 CALM 0 0 0 0 1019.1 1018.9 0.0
11/06:30am 9.0 8.6 8.1 94 0.4 CALM 0 0 0 0 1018.9 1018.7 0.0
11/06:00am 9.2 8.8 8.3 94 0.4 CALM 0 0 0 0 1018.6 1018.4 0.0
11/05:30am 9.3 8.9 8.2 93 0.5 CALM 0 0 0 0 1018.4 1018.2 0.0
11/05:00am 9.7 9.4 8.6 93 0.5 CALM 0 0 0 0 1018.3 1018.1 0.0
11/04:30am 9.9 9.6 8.8 93 0.5 CALM 0 0 0 0 1018.0 1017.7 0.0
11/04:00am 10.1 9.9 8.9 92 0.6 CALM 0 0 0 0 1018.0 1017.7 0.0
11/03:30am 10.4 10.3 9.3 93 0.5 CALM 0 0 0 0 1018.1 1017.9 0.0
11/03:00am 10.4 10.2 9.2 92 0.6 CALM 0 0 0 0 1018.2 1018.0 0.0
11/02:30am 10.7 10.6 9.5 92 0.6 CALM 0 0 0 0 1018.0 1017.7 0.0
11/02:00am 10.7 10.5 9.0 89 0.8 CALM 0 0 0 0 1018.2 1018.0 0.0
11/01:30am 11.1 11.0 9.5 90 0.8 CALM 0 0 0 0 1018.4 1018.2 0.0
11/01:00am 11.5 11.5 9.8 89 0.9 CALM 0 0 0 0 1018.5 1018.3 0.0
11/12:30am 11.9 11.9 9.8 87 1.1 CALM 0 0 0 0 1018.4 1018.2 0.0
11/12:00am 12.2 12.3 10.1 87 1.1 CALM 0 0 0 0 1018.7 1018.5 0.0
 
Date/Time
CST
Temp
°C
App
Temp
°C
Dew
Point
°C
Rel
Hum
%
Delta-T
°C
Wind Press
QNH
hPa
Press
MSL
hPa
Rain since
9am
mm
Dir  Spd
km/h
Gust
km/h
Spd
kts
Gust
kts
10/11:30pm 12.7 12.8 10.2 85 1.3 CALM 0 0 0 0 1018.7 1018.5 0.0
10/11:00pm 13.1 13.3 10.5 84 1.4 CALM 0 0 0 0 1018.9 1018.7 0.0
10/10:30pm 13.6 13.8 10.6 82 1.6 CALM 0 0 0 0 1018.7 1018.5 0.0
10/10:00pm 14.2 14.4 10.6 79 1.9 CALM 0 0 0 0 1018.7 1018.5 0.0
10/09:30pm 15.0 15.2 10.6 75 2.3 CALM 0 0 0 0 1018.8 1018.6 0.0
10/09:00pm 15.6 15.8 10.6 72 2.6 CALM 0 0 0 0 1018.6 1018.4 0.0
10/08:30pm 16.6 16.8 10.7 68 3.1 CALM 0 0 0 0 1018.3 1018.1 0.0

Other formats

Comma delimited format used in spreadsheet applications
http://www.bom.gov.au/fwo/IDD60801/IDD60801.94222.axf

JavaScript Object Notation format (JSON) in row-major order
http://www.bom.gov.au/fwo/IDD60801/IDD60801.94222.json

Data quality

Most of these data are generated automatically and are frequently updated. Quality checks on data are not normally performed. It is possible for incorrect values to appear. Refer to information at About Latest Weather Observations and please check the disclaimer before using these data.